Time;durP1;ratioP1;P1;durP2;ratioP2;P2;SDS_P1;SDS_P2;PMS_P1;PMS_P2;Temp;Humidity;BMP_temperature;BMP_pressure;BME280_temperature;BME280_humidity;BME280_pressure;Samples;Min_cycle;Max_cycle;Signal;HPM_P1;HPM_P2
2024/02/28 00:00:55;;;;;;;896.53;809.08;;;-0.20;99.90;;;;;;5014628;28;20496;-67
2024/02/28 00:03:23;;;;;;;901.20;814.60;;;-0.30;99.90;;;;;;5014249;28;20225;-67
2024/02/28 00:05:50;;;;;;;895.77;808.20;;;-0.20;99.90;;;;;;5009240;28;20204;-67
2024/02/28 00:08:19;;;;;;;905.72;819.05;;;-0.30;99.90;;;;;;5012083;28;20986;-67
2024/02/28 00:10:46;;;;;;;906.47;818.20;;;-0.30;99.90;;;;;;5014400;28;20587;-68
2024/02/28 00:13:13;;;;;;;911.20;825.00;;;-0.30;99.90;;;;;;5013685;28;20469;-66
2024/02/28 00:15:39;;;;;;;881.43;798.03;;;-0.20;99.90;;;;;;4998837;28;20459;-68
2024/02/28 00:18:06;;;;;;;724.03;655.50;;;0.00;99.90;;;;;;5014453;28;20449;-67
2024/02/28 00:20:34;;;;;;;718.17;648.43;;;0.00;99.90;;;;;;5014190;28;20460;-68
2024/02/28 00:23:01;;;;;;;721.20;652.10;;;-0.10;99.90;;;;;;5007110;28;20482;-67
2024/02/28 00:25:28;;;;;;;732.53;659.55;;;-0.30;99.90;;;;;;4994243;28;20464;-67
2024/02/28 00:27:55;;;;;;;717.77;649.50;;;-0.30;99.90;;;;;;5000526;28;20226;-68
2024/02/28 00:30:21;;;;;;;688.33;621.57;;;-0.30;99.90;;;;;;5014051;28;20988;-67
2024/02/28 00:32:48;;;;;;;684.17;613.90;;;-0.30;99.90;;;;;;5000879;28;20507;-67
2024/02/28 00:35:15;;;;;;;705.43;636.90;;;-0.20;99.90;;;;;;4994214;28;20557;-68
2024/02/28 00:37:43;;;;;;;723.15;651.08;;;-0.10;99.90;;;;;;4994650;28;20464;-67
2024/02/28 00:40:11;;;;;;;742.50;669.67;;;-0.10;99.90;;;;;;5010775;28;20200;-67
2024/02/28 00:42:38;;;;;;;723.23;645.13;;;-0.30;99.90;;;;;;5009911;28;20565;-67
2024/02/28 00:45:05;;;;;;;702.63;626.03;;;-0.30;99.90;;;;;;4993940;28;20450;-67
2024/02/28 00:47:32;;;;;;;702.70;629.43;;;-0.40;99.90;;;;;;5013274;28;20495;-67
2024/02/28 00:49:59;;;;;;;698.00;628.97;;;-0.50;99.90;;;;;;5013749;28;20457;-67
2024/02/28 00:52:26;;;;;;;707.72;636.70;;;-0.40;99.90;;;;;;5005885;28;20480;-68
2024/02/28 00:54:54;;;;;;;692.37;621.70;;;-0.50;99.90;;;;;;5013583;28;20561;-67
2024/02/28 00:57:20;;;;;;;714.67;640.20;;;-0.50;99.90;;;;;;5012204;28;20569;-68
2024/02/28 00:59:48;;;;;;;684.30;616.20;;;-0.60;99.90;;;;;;5007075;28;20461;-67
2024/02/28 01:02:14;;;;;;;705.83;632.38;;;-0.60;99.90;;;;;;4996211;28;20214;-68
2024/02/28 01:04:43;;;;;;;707.33;637.15;;;-0.50;99.90;;;;;;4993471;28;20214;-68
2024/02/28 01:07:10;;;;;;;707.00;636.60;;;-0.40;99.90;;;;;;4993691;28;20231;-68
2024/02/28 01:09:36;;;;;;;714.10;644.43;;;-0.50;99.90;;;;;;4997187;28;20460;-67
2024/02/28 01:12:05;;;;;;;702.90;630.80;;;-0.50;99.90;;;;;;5013556;28;20454;-68
2024/02/28 01:14:31;;;;;;;650.63;584.55;;;-0.50;99.90;;;;;;5001814;28;20455;-67
2024/02/28 01:16:58;;;;;;;643.40;575.77;;;-0.60;99.90;;;;;;4993677;28;20663;-68
2024/02/28 01:19:25;;;;;;;646.07;578.20;;;-0.60;99.90;;;;;;5009841;28;20529;-67
2024/02/28 01:21:52;;;;;;;629.67;563.77;;;-0.60;99.90;;;;;;4993533;28;20452;-67
2024/02/28 01:24:19;;;;;;;596.07;533.93;;;-0.60;99.90;;;;;;5010482;28;20485;-67
2024/02/28 01:26:45;;;;;;;646.23;578.37;;;-0.60;99.90;;;;;;5013120;28;20477;-68
2024/02/28 01:29:14;;;;;;;674.65;603.85;;;-0.70;99.90;;;;;;5004891;28;20461;-67
2024/02/28 01:31:41;;;;;;;712.63;642.93;;;-0.60;99.90;;;;;;5013059;28;20198;-68
2024/02/28 01:34:08;;;;;;;631.20;562.60;;;-0.50;99.90;;;;;;5004610;28;20474;-68
2024/02/28 01:36:34;;;;;;;617.43;553.73;;;-0.50;99.90;;;;;;4993041;28;20446;-67
2024/02/28 01:39:01;;;;;;;607.50;523.07;;;-0.60;99.90;;;;;;5008444;28;20479;-67
2024/02/28 01:41:28;;;;;;;588.45;528.10;;;-0.60;99.90;;;;;;5010036;28;20452;-68
2024/02/28 01:43:55;;;;;;;590.13;528.65;;;-0.80;99.90;;;;;;4992816;28;20219;-68
2024/02/28 01:46:26;;;;;;;572.78;511.73;;;-0.90;99.90;;;;;;4992978;28;20199;-68
2024/02/28 01:48:54;;;;;;;576.60;510.13;;;-0.90;99.90;;;;;;4998898;28;20209;-68
2024/02/28 01:51:21;;;;;;;568.50;503.00;;;-1.00;99.90;;;;;;5012526;28;20199;-68
2024/02/28 01:53:49;;;;;;;586.15;519.08;;;-1.10;99.90;;;;;;4999015;28;20233;-67
2024/02/28 01:56:17;;;;;;;576.45;504.42;;;-1.20;99.90;;;;;;5010076;28;20202;-67
2024/02/28 01:58:46;;;;;;;593.45;511.60;;;-1.10;99.90;;;;;;5007855;28;20678;-67
2024/02/28 02:01:14;;;;;;;622.35;507.65;;;-1.20;99.90;;;;;;5009692;28;20198;-68
2024/02/28 02:03:43;;;;;;;626.35;534.85;;;-1.30;99.90;;;;;;5011875;28;20229;-67
2024/02/28 02:06:11;;;;;;;604.58;540.55;;;-1.30;99.90;;;;;;5012568;28;20206;-66
2024/02/28 02:08:38;;;;;;;624.05;557.67;;;-1.20;99.90;;;;;;5012600;28;20662;-68
2024/02/28 02:11:06;;;;;;;635.97;564.28;;;-1.00;99.90;;;;;;5012368;28;20202;-68
2024/02/28 02:13:35;;;;;;;658.60;587.28;;;-0.80;99.90;;;;;;5009855;28;20258;-68
2024/02/28 02:16:01;;;;;;;648.23;571.73;;;-0.70;99.90;;;;;;5004442;28;20260;-67
2024/02/28 02:18:28;;;;;;;651.72;579.60;;;-0.60;99.90;;;;;;5012488;28;20451;-67
2024/02/28 02:21:03;;;;;;;621.67;555.93;;;-0.70;99.90;;;;;;5012938;28;20206;-67
2024/02/28 02:23:31;;;;;;;616.72;526.55;;;-0.70;99.90;;;;;;4993287;28;20531;-68
2024/02/28 02:25:58;;;;;;;632.70;519.40;;;-0.80;99.90;;;;;;5007477;28;20208;-68
2024/02/28 02:28:25;;;;;;;616.38;526.10;;;-0.70;99.90;;;;;;5012220;28;20859;-68
2024/02/28 02:30:51;;;;;;;622.97;547.97;;;-0.80;99.90;;;;;;5012064;28;20200;-67
2024/02/28 02:33:18;;;;;;;654.53;579.15;;;-0.70;99.90;;;;;;5011734;28;20488;-67
2024/02/28 02:35:45;;;;;;;671.00;584.03;;;-0.50;99.90;;;;;;5012221;28;20293;-68
2024/02/28 02:38:12;;;;;;;664.90;593.70;;;-0.40;99.90;;;;;;5011964;28;20194;-68
2024/02/28 02:40:40;;;;;;;683.07;612.10;;;-0.50;99.90;;;;;;5012027;28;20958;-67
2024/02/28 02:43:07;;;;;;;713.33;640.23;;;-0.40;99.90;;;;;;4996124;28;20476;-68
2024/02/28 02:45:33;;;;;;;765.60;689.00;;;-0.30;99.90;;;;;;4991921;28;20467;-67
2024/02/28 02:48:00;;;;;;;825.45;741.25;;;-0.20;99.90;;;;;;4992569;28;20494;-68
2024/02/28 02:50:27;;;;;;;876.17;787.65;;;0.10;99.90;;;;;;4992180;28;20355;-68
2024/02/28 02:52:54;;;;;;;901.88;812.67;;;0.20;99.90;;;;;;4992219;28;20703;-68
2024/02/28 02:55:21;;;;;;;931.23;831.53;;;0.30;99.90;;;;;;5009673;28;20198;-67
2024/02/28 02:57:49;;;;;;;1005.53;791.05;;;0.50;99.90;;;;;;4998620;28;20461;-68
2024/02/28 03:00:16;;;;;;;1001.00;784.33;;;0.60;99.90;;;;;;5009669;28;20224;-68
2024/02/28 03:02:43;;;;;;;1039.43;777.20;;;0.60;99.90;;;;;;5012134;28;21012;-68
2024/02/28 03:05:10;;;;;;;1025.57;759.43;;;0.70;99.90;;;;;;5011809;28;20960;-68
2024/02/28 03:07:36;;;;;;;1006.58;766.38;;;0.70;99.90;;;;;;5011894;28;20998;-67
2024/02/28 03:10:04;;;;;;;1014.00;760.90;;;0.80;99.90;;;;;;5011747;28;20203;-68
2024/02/28 03:12:32;;;;;;;1061.33;764.00;;;0.90;99.90;;;;;;5011381;28;20466;-68
2024/02/28 03:15:00;;;;;;;1089.03;763.80;;;1.00;99.90;;;;;;5011571;28;20454;-68
2024/02/28 03:17:27;;;;;;;1157.67;767.43;;;1.10;99.90;;;;;;4993038;28;20455;-68
2024/02/28 03:19:54;;;;;;;1132.67;776.70;;;1.20;99.90;;;;;;5006297;28;20980;-68
2024/02/28 03:22:21;;;;;;;1213.78;985.03;;;1.30;99.90;;;;;;4993639;28;20972;-68
2024/02/28 03:24:48;;;;;;;1201.80;999.90;;;1.30;99.90;;;;;;4992406;28;20206;-67
2024/02/28 03:27:15;;;;;;;1215.33;999.90;;;1.40;99.90;;;;;;5004402;28;20484;-68
2024/02/28 03:29:42;;;;;;;1220.27;999.90;;;1.50;99.90;;;;;;5015233;28;20842;-68
2024/02/28 03:32:10;;;;;;;1211.60;999.90;;;1.60;99.90;;;;;;5007446;28;20461;-68
2024/02/28 03:34:37;;;;;;;1207.60;989.63;;;1.80;99.90;;;;;;5006916;28;20456;-68
2024/02/28 03:37:05;;;;;;;1207.77;999.90;;;1.90;99.90;;;;;;5015373;28;20467;-68
2024/02/28 03:39:31;;;;;;;1199.27;998.70;;;1.80;99.90;;;;;;4995831;28;20456;-67
2024/02/28 03:41:58;;;;;;;1204.00;991.67;;;2.00;99.90;;;;;;4995900;28;20457;-68
2024/02/28 03:44:25;;;;;;;1224.10;985.60;;;2.00;99.90;;;;;;5013209;28;20486;-68
2024/02/28 03:46:52;;;;;;;1241.00;978.97;;;2.00;99.90;;;;;;5015098;28;20550;-68
2024/02/28 03:49:20;;;;;;;1203.67;992.57;;;2.10;99.90;;;;;;5014917;28;20488;-68
2024/02/28 03:51:47;;;;;;;1204.20;985.23;;;2.20;99.90;;;;;;5015077;28;20552;-68
2024/02/28 03:54:14;;;;;;;1224.13;983.67;;;2.20;99.90;;;;;;5014269;28;20890;-68
2024/02/28 03:56:41;;;;;;;1213.87;964.70;;;2.30;99.90;;;;;;5014797;28;20466;-68
2024/02/28 03:59:07;;;;;;;1198.40;980.93;;;2.40;99.90;;;;;;5014586;28;20460;-67
2024/02/28 04:01:34;;;;;;;1209.13;960.13;;;2.30;99.90;;;;;;5015117;28;20807;-68
2024/02/28 04:04:02;;;;;;;1219.27;973.97;;;2.40;99.90;;;;;;5014236;28;20608;-68
2024/02/28 04:06:30;;;;;;;1241.37;973.63;;;2.40;99.90;;;;;;5013067;28;20511;-68
2024/02/28 04:08:57;;;;;;;1188.50;986.83;;;2.50;99.90;;;;;;5015014;28;20577;-68
2024/02/28 04:11:24;;;;;;;1197.10;976.80;;;2.50;99.90;;;;;;5004558;28;20453;-68
2024/02/28 04:13:51;;;;;;;1169.77;983.90;;;2.60;99.90;;;;;;4994418;28;20481;-68
2024/02/28 04:16:18;;;;;;;1173.87;970.70;;;2.60;99.90;;;;;;5003952;28;20459;-68
2024/02/28 04:18:45;;;;;;;1176.40;974.30;;;2.50;99.90;;;;;;5010050;28;20838;-68
2024/02/28 04:21:12;;;;;;;1178.43;978.03;;;2.50;99.90;;;;;;5011204;28;20836;-68
2024/02/28 04:23:41;;;;;;;1175.00;973.60;;;2.50;99.90;;;;;;5002021;28;20537;-68
2024/02/28 04:26:08;;;;;;;1142.33;977.10;;;2.50;99.90;;;;;;4994930;28;20997;-68
2024/02/28 04:28:35;;;;;;;1176.37;972.27;;;2.60;99.90;;;;;;5005908;28;20498;-68
2024/02/28 04:31:02;;;;;;;1152.37;948.97;;;2.60;99.90;;;;;;4999217;28;20458;-68
2024/02/28 04:33:28;;;;;;;1167.43;956.10;;;2.60;99.90;;;;;;4996416;28;20477;-68
2024/02/28 04:35:55;;;;;;;1171.80;957.73;;;2.70;99.90;;;;;;5013765;28;20452;-68
2024/02/28 04:38:22;;;;;;;1121.63;962.63;;;2.60;99.90;;;;;;5013540;28;20462;-68
2024/02/28 04:40:50;;;;;;;1131.23;971.40;;;2.60;99.90;;;;;;5014166;28;20454;-69
2024/02/28 04:43:17;;;;;;;1114.37;979.90;;;2.60;99.90;;;;;;4996597;28;20470;-68
2024/02/28 04:45:44;;;;;;;1130.93;988.20;;;2.70;99.90;;;;;;5007033;28;20845;-68
2024/02/28 04:48:10;;;;;;;1130.53;992.60;;;2.60;99.90;;;;;;5005372;28;20861;-68
2024/02/28 04:50:37;;;;;;;1122.30;981.83;;;2.60;99.90;;;;;;5013783;28;20839;-68
2024/02/28 04:53:04;;;;;;;1133.10;986.03;;;2.60;99.90;;;;;;5013936;28;20472;-68
2024/02/28 04:55:31;;;;;;;1127.87;981.10;;;2.60;99.90;;;;;;5013497;28;20460;-68
2024/02/28 04:57:59;;;;;;;1146.33;992.03;;;2.60;99.90;;;;;;5013643;28;20468;-68
2024/02/28 05:00:26;;;;;;;1113.67;972.83;;;2.50;99.90;;;;;;5013958;28;20990;-68
2024/02/28 05:02:53;;;;;;;1147.20;979.43;;;2.50;99.90;;;;;;5005411;28;20472;-68
2024/02/28 05:05:20;;;;;;;1142.83;974.37;;;2.40;99.90;;;;;;5013513;28;20461;-68
2024/02/28 05:07:46;;;;;;;1142.07;964.40;;;2.50;99.90;;;;;;5013683;28;20867;-68
2024/02/28 05:10:13;;;;;;;1152.50;947.73;;;2.50;99.90;;;;;;4996562;28;20960;-67
2024/02/28 05:15:32;;;;;;;1136.53;960.07;;;2.20;99.90;;;;;;4995871;28;20531;-68
2024/02/28 05:17:58;;;;;;;1101.63;966.17;;;2.00;99.90;;;;;;5013112;28;20982;-68
2024/02/28 05:20:25;;;;;;;1186.87;961.37;;;2.00;99.90;;;;;;5005252;28;20950;-68
2024/02/28 05:22:52;;;;;;;1160.53;960.40;;;2.00;99.90;;;;;;5013608;28;20471;-68
2024/02/28 05:25:19;;;;;;;1189.17;941.80;;;2.00;99.90;;;;;;4995303;28;20468;-67
2024/02/28 05:27:46;;;;;;;1120.47;925.37;;;1.90;99.90;;;;;;4993225;28;20461;-68
2024/02/28 05:30:13;;;;;;;1112.73;926.27;;;1.90;99.90;;;;;;5009761;28;20449;-68
2024/02/28 05:32:41;;;;;;;1140.87;939.53;;;2.00;99.90;;;;;;4993486;28;20486;-67
2024/02/28 05:35:11;;;;;;;1083.17;927.77;;;2.00;99.90;;;;;;5008961;28;20953;-68
2024/02/28 05:37:38;;;;;;;1095.13;922.43;;;2.00;99.90;;;;;;5012947;28;20833;-68
2024/02/28 05:40:09;;;;;;;1104.00;910.37;;;2.00;99.90;;;;;;5005376;28;20464;-68
2024/02/28 05:42:36;;;;;;;1125.63;889.67;;;1.90;99.90;;;;;;4992910;28;20481;-68
2024/02/28 05:45:02;;;;;;;1080.20;889.67;;;1.90;99.90;;;;;;5008173;28;20457;-68
2024/02/28 05:47:29;;;;;;;1100.67;908.23;;;2.00;99.90;;;;;;5012567;28;20460;-68
2024/02/28 05:49:58;;;;;;;1092.77;913.00;;;1.90;99.90;;;;;;5012480;28;21001;-68
2024/02/28 05:52:25;;;;;;;1094.33;906.57;;;2.00;99.90;;;;;;5002351;28;20485;-68
2024/02/28 05:54:52;;;;;;;1044.80;904.03;;;1.90;99.90;;;;;;4998061;28;20455;-68
2024/02/28 05:57:19;;;;;;;1063.87;902.47;;;2.00;99.90;;;;;;5012244;28;20956;-67
2024/02/28 05:59:46;;;;;;;1065.40;902.70;;;2.10;99.90;;;;;;5012526;28;20470;-68
2024/02/28 06:02:12;;;;;;;1066.17;916.00;;;2.10;99.90;;;;;;5012523;28;20837;-68
2024/02/28 06:04:39;;;;;;;1109.77;927.70;;;2.10;99.90;;;;;;5012086;28;20485;-68
2024/02/28 06:07:07;;;;;;;1101.07;956.83;;;2.20;99.90;;;;;;5012693;28;20456;-68
2024/02/28 06:09:34;;;;;;;1086.20;964.50;;;2.20;99.90;;;;;;5008470;28;20494;-68
2024/02/28 06:12:02;;;;;;;1116.60;957.87;;;2.30;99.90;;;;;;4993061;28;20483;-68
2024/02/28 06:14:29;;;;;;;1088.40;968.00;;;2.30;99.90;;;;;;5003142;28;20513;-68
2024/02/28 06:16:56;;;;;;;1117.87;977.67;;;2.40;99.90;;;;;;5012331;28;21001;-68
2024/02/28 06:19:23;;;;;;;1119.87;953.97;;;2.30;99.90;;;;;;5004002;28;20450;-68
2024/02/28 06:21:50;;;;;;;1168.73;970.33;;;2.40;99.90;;;;;;5012086;28;20551;-68
2024/02/28 06:24:18;;;;;;;1189.90;999.90;;;2.40;99.90;;;;;;5003280;28;20563;-68
2024/02/28 06:26:45;;;;;;;1168.40;968.90;;;2.50;99.90;;;;;;5012128;28;20453;-68
2024/02/28 06:29:11;;;;;;;1154.77;963.70;;;2.50;99.90;;;;;;5012273;28;20571;-68
2024/02/28 06:31:38;;;;;;;1160.40;946.67;;;2.50;99.90;;;;;;5012231;28;20456;-68
2024/02/28 06:34:05;;;;;;;1223.47;954.37;;;2.60;99.90;;;;;;5011473;28;21002;-68
2024/02/28 06:36:32;;;;;;;1183.47;952.27;;;2.60;99.90;;;;;;5004249;28;20511;-68
2024/02/28 06:38:59;;;;;;;1176.70;941.03;;;2.60;99.90;;;;;;5011722;28;20444;-68
2024/02/28 06:41:28;;;;;;;1177.80;949.57;;;2.60;99.90;;;;;;5012014;28;20449;-69
2024/02/28 06:43:55;;;;;;;1198.50;955.27;;;2.70;99.90;;;;;;5011252;28;20477;-69
2024/02/28 06:46:21;;;;;;;1179.03;954.80;;;2.70;99.90;;;;;;5001069;28;20454;-68
2024/02/28 06:48:48;;;;;;;1218.63;955.47;;;2.70;99.90;;;;;;4996829;28;20481;-68
2024/02/28 06:51:17;;;;;;;1168.83;955.67;;;2.70;99.90;;;;;;5010729;28;20461;-68
2024/02/28 06:53:44;;;;;;;1162.57;961.50;;;2.80;99.90;;;;;;4996452;28;20496;-68
2024/02/28 06:56:11;;;;;;;1164.63;965.90;;;2.70;99.90;;;;;;5012271;28;20452;-68
2024/02/28 06:58:41;;;;;;;1118.43;948.43;;;2.70;99.90;;;;;;5011946;28;20472;-68
2024/02/28 07:01:08;;;;;;;1113.20;954.40;;;2.80;99.90;;;;;;5017814;28;20820;-68
2024/02/28 07:03:35;;;;;;;1123.60;960.70;;;2.80;99.90;;;;;;5016409;28;20476;-68
2024/02/28 07:06:02;;;;;;;1114.97;948.70;;;2.80;99.90;;;;;;5016524;28;20805;-68
2024/02/28 07:08:29;;;;;;;1092.97;947.67;;;2.80;99.90;;;;;;4997349;28;20481;-68
2024/02/28 07:10:55;;;;;;;1098.97;952.03;;;2.80;99.90;;;;;;5002965;28;20459;-69
2024/02/28 07:13:22;;;;;;;1091.57;944.97;;;2.80;99.90;;;;;;5015796;28;20481;-68
2024/02/28 07:15:50;;;;;;;1114.57;944.03;;;2.90;99.90;;;;;;5015958;28;20488;-68
2024/02/28 07:18:17;;;;;;;1150.07;935.60;;;2.90;99.90;;;;;;5015930;28;20457;-68
2024/02/28 07:20:44;;;;;;;1141.70;940.10;;;2.90;99.90;;;;;;5016311;28;20465;-68
2024/02/28 07:23:11;;;;;;;1134.57;939.07;;;3.00;99.90;;;;;;4999424;28;20477;-68
2024/02/28 07:25:38;;;;;;;1151.97;931.37;;;3.00;99.90;;;;;;5013548;28;20463;-68
2024/02/28 07:28:05;;;;;;;1169.70;923.33;;;3.00;99.90;;;;;;5015298;28;20992;-68
2024/02/28 07:30:32;;;;;;;1122.53;917.47;;;3.00;99.90;;;;;;5007447;28;20452;-69
2024/02/28 07:33:00;;;;;;;1111.63;922.57;;;3.10;99.90;;;;;;5000827;28;20998;-68
2024/02/28 07:35:27;;;;;;;1106.03;914.27;;;3.10;99.90;;;;;;5006051;28;20553;-68
2024/02/28 07:37:54;;;;;;;1078.10;898.73;;;3.20;99.90;;;;;;5015481;28;20461;-68
2024/02/28 07:40:21;;;;;;;1047.70;890.37;;;3.10;99.90;;;;;;5015600;28;20463;-68
2024/02/28 07:42:47;;;;;;;1103.43;916.23;;;3.10;99.90;;;;;;5013705;28;20447;-68
2024/02/28 07:45:14;;;;;;;1026.23;872.93;;;3.10;99.90;;;;;;5013434;28;20448;-68
2024/02/28 07:47:41;;;;;;;1037.00;867.43;;;3.10;99.90;;;;;;5014540;28;20457;-70
2024/02/28 07:50:10;;;;;;;1021.70;874.13;;;3.10;99.90;;;;;;5014478;28;20484;-68
2024/02/28 07:52:37;;;;;;;998.30;851.03;;;3.20;99.90;;;;;;5006721;28;20477;-68
2024/02/28 07:55:04;;;;;;;1000.40;837.40;;;3.20;99.90;;;;;;5014497;28;20507;-68
2024/02/28 07:57:33;;;;;;;1006.03;829.97;;;3.20;99.90;;;;;;5014739;28;20464;-71
2024/02/28 07:59:59;;;;;;;983.77;834.50;;;3.30;99.90;;;;;;5014347;28;20459;-68
2024/02/28 08:02:26;;;;;;;1009.77;851.57;;;3.40;99.90;;;;;;5014623;28;20511;-68
2024/02/28 08:04:53;;;;;;;999.80;833.53;;;3.60;99.90;;;;;;5014661;28;20479;-68
2024/02/28 08:07:21;;;;;;;962.27;835.23;;;3.70;99.90;;;;;;4997272;28;20450;-69
2024/02/28 08:09:48;;;;;;;982.20;833.40;;;3.70;99.90;;;;;;4994954;28;20859;-68
2024/02/28 08:12:15;;;;;;;962.40;824.43;;;3.80;99.90;;;;;;4993350;28;20460;-67
2024/02/28 08:14:42;;;;;;;972.73;817.03;;;3.90;99.90;;;;;;4994295;28;20462;-68
2024/02/28 08:17:08;;;;;;;940.50;811.17;;;4.00;99.90;;;;;;5002759;28;20464;-68
2024/02/28 08:19:35;;;;;;;926.87;822.47;;;4.10;99.90;;;;;;5014467;28;20922;-68
2024/02/28 08:22:02;;;;;;;955.40;833.37;;;4.30;99.90;;;;;;5014666;28;20508;-68
2024/02/28 08:24:30;;;;;;;940.43;817.60;;;4.50;99.90;;;;;;5014275;28;20477;-68
2024/02/28 08:26:57;;;;;;;925.10;816.10;;;4.50;99.90;;;;;;5014198;28;20511;-68
2024/02/28 08:29:24;;;;;;;901.50;802.30;;;4.50;99.90;;;;;;4996138;28;20515;-67
2024/02/28 08:31:50;;;;;;;907.83;807.60;;;4.50;99.90;;;;;;4994832;28;20476;-68
2024/02/28 08:34:17;;;;;;;901.43;804.10;;;4.60;99.90;;;;;;4994135;28;20473;-68
2024/02/28 08:36:44;;;;;;;895.10;798.00;;;4.60;99.90;;;;;;5007279;28;20843;-67
2024/02/28 08:39:11;;;;;;;892.07;797.60;;;4.60;99.90;;;;;;5005700;28;20450;-68
2024/02/28 08:41:39;;;;;;;894.83;800.37;;;4.40;99.90;;;;;;4994117;28;20453;-68
2024/02/28 08:44:06;;;;;;;898.57;805.27;;;4.40;99.90;;;;;;5001315;28;20488;-68
2024/02/28 08:46:33;;;;;;;907.77;816.03;;;4.50;99.90;;;;;;5013880;28;20904;-68
2024/02/28 08:48:59;;;;;;;912.00;818.63;;;4.30;99.90;;;;;;5014020;28;20480;-68
2024/02/28 08:51:27;;;;;;;911.97;816.83;;;4.50;99.90;;;;;;5013658;28;20457;-69
2024/02/28 08:53:55;;;;;;;916.13;821.40;;;4.50;99.90;;;;;;5007521;28;20952;-68
2024/02/28 08:56:22;;;;;;;927.27;831.27;;;4.50;99.90;;;;;;4994491;28;20458;-68
2024/02/28 08:58:50;;;;;;;927.10;830.00;;;4.70;99.90;;;;;;5000338;28;20556;-68
2024/02/28 09:01:17;;;;;;;930.87;834.17;;;4.70;99.90;;;;;;5000086;28;20457;-68
2024/02/28 09:03:44;;;;;;;917.83;824.23;;;5.00;99.90;;;;;;5011439;28;20473;-67
2024/02/28 09:06:10;;;;;;;912.53;821.57;;;5.20;99.90;;;;;;5005902;28;20991;-65
2024/02/28 09:08:37;;;;;;;889.07;801.60;;;5.30;99.90;;;;;;5005259;28;20949;-67
2024/02/28 09:11:05;;;;;;;893.57;809.20;;;5.30;99.90;;;;;;5014382;28;20448;-67
2024/02/28 09:13:32;;;;;;;892.10;807.30;;;5.40;99.90;;;;;;5013045;28;20535;-67
2024/02/28 09:16:00;;;;;;;894.07;811.17;;;5.70;99.90;;;;;;5010357;28;20454;-67
2024/02/28 09:18:26;;;;;;;890.13;812.00;;;6.00;99.90;;;;;;5008277;28;20448;-67
2024/02/28 09:20:53;;;;;;;890.97;814.03;;;6.10;99.90;;;;;;5008258;28;20445;-67
2024/02/28 09:23:20;;;;;;;875.63;808.63;;;6.30;99.90;;;;;;5006069;28;20468;-65
2024/02/28 09:25:47;;;;;;;844.73;787.63;;;6.40;99.90;;;;;;5013461;28;20480;-67
2024/02/28 09:28:15;;;;;;;805.07;753.67;;;6.90;99.90;;;;;;5012765;28;20448;-67
2024/02/28 09:30:42;;;;;;;759.50;714.33;;;7.00;99.90;;;;;;5006151;28;20865;-67
2024/02/28 09:33:11;;;;;;;596.80;562.47;;;6.90;99.90;;;;;;5006500;28;20474;-67
2024/02/28 09:35:38;;;;;;;426.23;403.03;;;7.00;99.90;;;;;;5004577;28;20449;-67
2024/02/28 09:38:05;;;;;;;342.97;323.13;;;7.20;99.90;;;;;;5012117;28;20456;-66
2024/02/28 09:40:32;;;;;;;204.90;191.10;;;7.60;99.90;;;;;;5007102;28;20444;-65
2024/02/28 09:43:03;;;;;;;180.47;167.60;;;7.70;99.90;;;;;;5006413;28;20484;-67
2024/02/28 09:45:31;;;;;;;163.00;151.27;;;7.80;99.90;;;;;;5004207;28;20524;-67
2024/02/28 09:47:59;;;;;;;142.90;132.53;;;8.00;99.90;;;;;;5007766;28;20453;-67
2024/02/28 09:50:28;;;;;;;106.23;96.63;;;8.00;99.90;;;;;;5012414;28;20485;-68
2024/02/28 09:52:55;;;;;;;95.30;87.10;;;8.10;99.90;;;;;;5009327;28;20548;-68
2024/02/28 09:55:22;;;;;;;70.67;56.13;;;7.90;99.90;;;;;;5001265;28;20480;-68
2024/02/28 09:57:50;;;;;;;62.73;36.13;;;8.00;99.90;;;;;;4999438;28;20495;-71
2024/02/28 10:00:21;;;;;;;61.00;43.83;;;8.20;99.90;;;;;;5012258;28;20452;-71
2024/02/28 10:02:49;;;;;;;61.53;36.00;;;8.10;99.90;;;;;;5002464;28;20480;-71
2024/02/28 10:05:18;;;;;;;59.90;37.07;;;8.20;99.90;;;;;;5009831;28;20453;-68
2024/02/28 10:07:46;;;;;;;65.83;37.47;;;8.80;99.90;;;;;;5003179;28;20540;-68
2024/02/28 10:10:13;;;;;;;70.23;38.20;;;8.20;99.00;;;;;;5012471;28;21000;-68
2024/02/28 10:12:43;;;;;;;60.07;33.97;;;8.50;99.90;;;;;;5012203;28;20477;-68
2024/02/28 10:15:11;;;;;;;66.63;35.80;;;8.60;99.90;;;;;;4995819;28;20462;-68
2024/02/28 10:17:38;;;;;;;65.87;34.50;;;8.70;99.90;;;;;;5004557;28;20460;-67
2024/02/28 10:20:05;;;;;;;64.47;35.90;;;9.00;98.60;;;;;;5004169;28;20449;-68
2024/02/28 10:22:35;;;;;;;60.17;32.43;;;9.00;97.70;;;;;;5001056;28;20473;-68
2024/02/28 10:25:04;;;;;;;57.67;34.13;;;8.70;97.60;;;;;;5007464;28;20448;-68
2024/02/28 10:27:33;;;;;;;59.70;32.80;;;8.60;97.50;;;;;;5012070;28;20523;-67
2024/02/28 10:30:04;;;;;;;56.27;33.10;;;8.80;97.60;;;;;;5011961;28;20480;-68
2024/02/28 10:32:31;;;;;;;61.60;33.70;;;9.10;97.70;;;;;;5012025;28;20481;-68
2024/02/28 10:34:59;;;;;;;49.50;30.27;;;9.40;97.80;;;;;;5011229;28;20453;-68
2024/02/28 10:37:30;;;;;;;56.37;31.80;;;9.80;98.00;;;;;;5012036;28;20478;-68
2024/02/28 10:39:58;;;;;;;53.23;29.27;;;10.10;94.40;;;;;;5012156;28;20460;-68
2024/02/28 10:42:30;;;;;;;54.20;29.90;;;10.30;91.60;;;;;;5011821;28;20480;-67
2024/02/28 10:44:59;;;;;;;48.57;29.80;;;10.10;91.00;;;;;;5012050;28;20835;-68
2024/02/28 10:47:27;;;;;;;50.43;31.13;;;10.10;91.00;;;;;;4994095;28;20516;-68
2024/02/28 10:49:54;;;;;;;48.97;30.03;;;10.40;91.10;;;;;;4992677;28;20573;-68
2024/02/28 10:52:23;;;;;;;52.60;29.93;;;10.60;91.20;;;;;;4992505;28;20454;-68
2024/02/28 10:54:56;;;;;;;50.07;27.70;;;10.60;87.10;;;;;;4991737;28;20465;-67
2024/02/28 10:57:25;;;;;;;48.93;31.70;;;11.20;91.30;;;;;;5009086;28;20456;-68
2024/02/28 10:59:54;;;;;;;48.27;28.00;;;11.80;82.50;;;;;;4997949;28;20534;-68
2024/02/28 11:02:22;;;;;;;43.30;26.43;;;12.20;78.90;;;;;;5010561;28;20952;-68
2024/02/28 11:04:48;;;;;;;52.40;29.97;;;11.60;70.60;;;;;;4991973;28;20454;-68
2024/02/28 11:07:21;;;;;;;56.13;31.13;;;11.50;78.30;;;;;;5000861;28;20453;-67
2024/02/28 11:09:47;;;;;;;52.67;29.73;;;11.50;78.30;;;;;;5003952;28;20485;-68
2024/02/28 11:12:27;;;;;;;51.73;30.10;;;11.80;78.60;;;;;;5000766;28;21032;-68
2024/02/28 11:14:59;;;;;;;49.67;31.07;;;11.30;78.10;;;;;;4998222;28;20457;-67
2024/02/28 11:17:31;;;;;;;49.63;28.63;;;11.70;78.50;;;;;;5010167;28;20853;-68
2024/02/28 11:19:58;;;;;;;45.63;28.13;;;12.60;79.20;;;;;;5007112;28;20452;-69
2024/02/28 11:22:25;;;;;;;51.63;30.67;;;12.90;63.70;;;;;;5001816;28;20473;-67
2024/02/28 11:24:55;;;;;;;45.43;29.00;;;13.60;64.30;;;;;;4991744;28;20460;-67
2024/02/28 11:27:22;;;;;;;53.23;29.50;;;14.00;64.60;;;;;;5003627;28;20457;-67
2024/02/28 11:29:49;;;;;;;52.13;29.07;;;13.90;56.10;;;;;;5006669;28;20482;-68
2024/02/28 11:32:17;;;;;;;59.20;31.67;;;14.20;56.50;;;;;;5008101;28;20456;-68
2024/02/28 11:34:45;;;;;;;45.40;29.17;;;14.50;56.80;;;;;;5000258;28;20454;-67
2024/02/28 11:37:12;;;;;;;45.27;28.10;;;15.20;53.30;;;;;;4992282;28;20454;-67
2024/02/28 11:39:39;;;;;;;51.10;30.27;;;14.90;41.80;;;;;;4995803;28;20453;-67
2024/02/28 11:42:14;;;;;;;43.87;26.50;;;14.60;39.30;;;;;;5004110;28;20474;-71
2024/02/28 11:44:41;;;;;;;46.92;30.75;;;14.50;48.00;;;;;;5002492;28;20993;-69
2024/02/28 11:47:10;;;;;;;41.83;27.30;;;14.90;45.10;;;;;;5013831;28;20203;-69
2024/02/28 11:49:38;;;;;;;47.40;28.17;;;14.70;39.30;;;;;;5007127;28;20464;-69
2024/02/28 11:52:05;;;;;;;41.27;25.27;;;13.80;36.20;;;;;;5011841;28;20456;-69
2024/02/28 11:54:32;;;;;;;47.80;28.23;;;13.80;38.60;;;;;;5005130;28;20453;-69
2024/02/28 11:56:59;;;;;;;48.83;28.10;;;13.50;38.30;;;;;;5008228;28;20803;-69
2024/02/28 11:59:26;;;;;;;41.53;27.10;;;13.80;43.00;;;;;;5012919;28;20460;-69
2024/02/28 12:01:55;;;;;;;41.93;25.50;;;14.20;47.60;;;;;;5014609;28;20531;-69
2024/02/28 12:04:25;;;;;;;39.20;24.20;;;14.60;39.30;;;;;;5012551;28;20473;-69
2024/02/28 12:06:53;;;;;;;42.73;26.00;;;14.80;30.40;;;;;;4995282;28;21021;-68
2024/02/28 12:09:20;;;;;;;39.10;25.10;;;15.10;30.80;;;;;;5012209;28;20457;-69
2024/02/28 12:11:47;;;;;;;42.37;25.70;;;15.10;30.70;;;;;;5014299;28;21012;-69
2024/02/28 12:14:14;;;;;;;38.70;23.33;;;15.40;31.00;;;;;;5013600;28;20477;-69
2024/02/28 12:16:41;;;;;;;41.40;24.87;;;15.90;24.90;;;;;;5002407;28;20480;-69